sensor_id;sensor_type;location;lat;lon;timestamp;P1;durP1;ratioP1;P2;durP2;ratioP2
9823;SDS011;4951;50.778;7.196;2024-03-22T00:01:45;19.10;;;16.67;;
9823;SDS011;4951;50.778;7.196;2024-03-22T00:04:13;20.67;;;17.00;;
9823;SDS011;4951;50.778;7.196;2024-03-22T00:06:41;22.93;;;19.47;;
9823;SDS011;4951;50.778;7.196;2024-03-22T00:09:08;23.47;;;18.90;;
9823;SDS011;4951;50.778;7.196;2024-03-22T00:11:36;21.87;;;18.37;;
9823;SDS011;4951;50.778;7.196;2024-03-22T00:14:04;23.00;;;17.13;;
9823;SDS011;4951;50.778;7.196;2024-03-22T00:16:32;25.70;;;20.73;;
9823;SDS011;4951;50.778;7.196;2024-03-22T00:18:58;22.70;;;18.87;;
9823;SDS011;4951;50.778;7.196;2024-03-22T00:21:27;31.20;;;23.43;;
9823;SDS011;4951;50.778;7.196;2024-03-22T00:23:53;25.27;;;20.67;;
9823;SDS011;4951;50.778;7.196;2024-03-22T00:26:20;25.97;;;21.13;;
9823;SDS011;4951;50.778;7.196;2024-03-22T00:28:46;25.47;;;21.27;;
9823;SDS011;4951;50.778;7.196;2024-03-22T00:31:14;26.07;;;21.67;;
9823;SDS011;4951;50.778;7.196;2024-03-22T00:33:41;24.70;;;20.40;;
9823;SDS011;4951;50.778;7.196;2024-03-22T00:36:08;26.50;;;21.60;;
9823;SDS011;4951;50.778;7.196;2024-03-22T00:38:36;28.60;;;23.17;;
9823;SDS011;4951;50.778;7.196;2024-03-22T00:41:04;27.30;;;20.87;;
9823;SDS011;4951;50.778;7.196;2024-03-22T00:43:30;25.63;;;21.03;;
9823;SDS011;4951;50.778;7.196;2024-03-22T00:45:57;26.20;;;22.73;;
9823;SDS011;4951;50.778;7.196;2024-03-22T00:48:24;30.00;;;23.37;;
9823;SDS011;4951;50.778;7.196;2024-03-22T00:50:51;24.97;;;20.23;;
9823;SDS011;4951;50.778;7.196;2024-03-22T00:53:17;27.10;;;18.50;;
9823;SDS011;4951;50.778;7.196;2024-03-22T00:55:46;26.27;;;20.57;;
9823;SDS011;4951;50.778;7.196;2024-03-22T00:58:16;24.43;;;19.70;;
9823;SDS011;4951;50.778;7.196;2024-03-22T01:00:44;27.97;;;21.23;;
9823;SDS011;4951;50.778;7.196;2024-03-22T01:03:10;27.17;;;21.23;;
9823;SDS011;4951;50.778;7.196;2024-03-22T01:05:38;23.60;;;19.53;;
9823;SDS011;4951;50.778;7.196;2024-03-22T01:08:06;21.17;;;18.43;;
9823;SDS011;4951;50.778;7.196;2024-03-22T01:10:33;26.17;;;19.60;;
9823;SDS011;4951;50.778;7.196;2024-03-22T01:13:01;25.97;;;20.00;;
9823;SDS011;4951;50.778;7.196;2024-03-22T01:15:28;24.63;;;19.10;;
9823;SDS011;4951;50.778;7.196;2024-03-22T01:17:55;23.10;;;19.23;;
9823;SDS011;4951;50.778;7.196;2024-03-22T01:20:22;26.20;;;19.73;;
9823;SDS011;4951;50.778;7.196;2024-03-22T01:22:48;24.33;;;21.03;;
9823;SDS011;4951;50.778;7.196;2024-03-22T01:25:16;24.97;;;19.27;;
9823;SDS011;4951;50.778;7.196;2024-03-22T01:27:42;22.33;;;17.60;;
9823;SDS011;4951;50.778;7.196;2024-03-22T01:30:11;21.53;;;17.33;;
9823;SDS011;4951;50.778;7.196;2024-03-22T01:32:37;22.63;;;18.30;;
9823;SDS011;4951;50.778;7.196;2024-03-22T01:35:04;21.30;;;17.63;;
9823;SDS011;4951;50.778;7.196;2024-03-22T01:37:31;24.50;;;19.50;;
9823;SDS011;4951;50.778;7.196;2024-03-22T01:39:58;26.37;;;19.67;;
9823;SDS011;4951;50.778;7.196;2024-03-22T01:42:24;23.07;;;19.63;;
9823;SDS011;4951;50.778;7.196;2024-03-22T01:44:51;25.50;;;17.20;;
9823;SDS011;4951;50.778;7.196;2024-03-22T01:47:19;22.33;;;17.67;;
9823;SDS011;4951;50.778;7.196;2024-03-22T01:49:46;24.80;;;20.30;;
9823;SDS011;4951;50.778;7.196;2024-03-22T01:52:14;20.97;;;16.07;;
9823;SDS011;4951;50.778;7.196;2024-03-22T01:54:41;24.07;;;20.10;;
9823;SDS011;4951;50.778;7.196;2024-03-22T01:57:07;24.73;;;18.77;;
9823;SDS011;4951;50.778;7.196;2024-03-22T01:59:35;20.37;;;16.93;;
9823;SDS011;4951;50.778;7.196;2024-03-22T02:02:02;23.07;;;19.23;;
9823;SDS011;4951;50.778;7.196;2024-03-22T02:04:30;22.70;;;17.77;;
9823;SDS011;4951;50.778;7.196;2024-03-22T02:06:57;21.70;;;18.67;;
9823;SDS011;4951;50.778;7.196;2024-03-22T02:09:24;25.00;;;18.73;;
9823;SDS011;4951;50.778;7.196;2024-03-22T02:11:51;20.80;;;17.00;;
9823;SDS011;4951;50.778;7.196;2024-03-22T02:14:18;20.30;;;16.30;;
9823;SDS011;4951;50.778;7.196;2024-03-22T02:16:44;24.30;;;18.90;;
9823;SDS011;4951;50.778;7.196;2024-03-22T02:19:11;19.30;;;15.13;;
9823;SDS011;4951;50.778;7.196;2024-03-22T02:21:39;19.00;;;15.87;;
9823;SDS011;4951;50.778;7.196;2024-03-22T02:24:07;22.07;;;18.23;;
9823;SDS011;4951;50.778;7.196;2024-03-22T02:26:33;21.80;;;18.20;;
9823;SDS011;4951;50.778;7.196;2024-03-22T02:29:01;22.83;;;17.07;;
9823;SDS011;4951;50.778;7.196;2024-03-22T02:31:27;20.47;;;16.00;;
9823;SDS011;4951;50.778;7.196;2024-03-22T02:33:53;20.27;;;16.23;;
9823;SDS011;4951;50.778;7.196;2024-03-22T02:36:20;24.17;;;18.90;;
9823;SDS011;4951;50.778;7.196;2024-03-22T02:38:47;23.50;;;17.97;;
9823;SDS011;4951;50.778;7.196;2024-03-22T02:41:15;22.37;;;16.63;;
9823;SDS011;4951;50.778;7.196;2024-03-22T02:43:42;20.93;;;15.90;;
9823;SDS011;4951;50.778;7.196;2024-03-22T02:46:08;20.33;;;16.17;;
9823;SDS011;4951;50.778;7.196;2024-03-22T02:48:35;26.03;;;18.83;;
9823;SDS011;4951;50.778;7.196;2024-03-22T02:51:02;23.77;;;18.43;;
9823;SDS011;4951;50.778;7.196;2024-03-22T02:53:29;23.93;;;18.60;;
9823;SDS011;4951;50.778;7.196;2024-03-22T02:55:55;20.97;;;16.83;;
9823;SDS011;4951;50.778;7.196;2024-03-22T02:58:23;23.00;;;18.57;;
9823;SDS011;4951;50.778;7.196;2024-03-22T03:00:49;21.13;;;16.67;;
9823;SDS011;4951;50.778;7.196;2024-03-22T03:03:17;23.40;;;18.83;;
9823;SDS011;4951;50.778;7.196;2024-03-22T03:05:43;23.30;;;19.13;;
9823;SDS011;4951;50.778;7.196;2024-03-22T03:08:10;25.33;;;19.87;;
9823;SDS011;4951;50.778;7.196;2024-03-22T03:10:36;23.90;;;18.63;;
9823;SDS011;4951;50.778;7.196;2024-03-22T03:13:03;20.87;;;16.73;;
9823;SDS011;4951;50.778;7.196;2024-03-22T03:15:31;19.60;;;16.53;;
9823;SDS011;4951;50.778;7.196;2024-03-22T03:17:58;18.47;;;15.30;;
9823;SDS011;4951;50.778;7.196;2024-03-22T03:20:27;21.87;;;17.33;;
9823;SDS011;4951;50.778;7.196;2024-03-22T03:22:54;20.87;;;16.93;;
9823;SDS011;4951;50.778;7.196;2024-03-22T03:25:25;23.30;;;18.67;;
9823;SDS011;4951;50.778;7.196;2024-03-22T03:27:52;19.33;;;15.43;;
9823;SDS011;4951;50.778;7.196;2024-03-22T03:30:18;21.80;;;16.10;;
9823;SDS011;4951;50.778;7.196;2024-03-22T03:32:46;22.93;;;17.60;;
9823;SDS011;4951;50.778;7.196;2024-03-22T03:35:12;18.07;;;14.57;;
9823;SDS011;4951;50.778;7.196;2024-03-22T03:37:39;22.33;;;18.27;;
9823;SDS011;4951;50.778;7.196;2024-03-22T03:40:06;19.77;;;16.20;;
9823;SDS011;4951;50.778;7.196;2024-03-22T03:42:34;21.50;;;16.23;;
9823;SDS011;4951;50.778;7.196;2024-03-22T03:45:01;24.10;;;18.40;;
9823;SDS011;4951;50.778;7.196;2024-03-22T03:47:28;22.13;;;18.10;;
9823;SDS011;4951;50.778;7.196;2024-03-22T03:49:55;19.90;;;16.90;;
9823;SDS011;4951;50.778;7.196;2024-03-22T03:52:23;24.33;;;19.50;;
9823;SDS011;4951;50.778;7.196;2024-03-22T03:54:49;20.67;;;16.70;;
9823;SDS011;4951;50.778;7.196;2024-03-22T03:57:17;20.00;;;15.27;;
9823;SDS011;4951;50.778;7.196;2024-03-22T03:59:43;25.47;;;18.27;;
9823;SDS011;4951;50.778;7.196;2024-03-22T04:02:11;24.83;;;18.17;;
9823;SDS011;4951;50.778;7.196;2024-03-22T04:04:37;22.57;;;17.70;;
9823;SDS011;4951;50.778;7.196;2024-03-22T04:07:06;19.73;;;15.93;;
9823;SDS011;4951;50.778;7.196;2024-03-22T04:09:33;22.73;;;18.20;;
9823;SDS011;4951;50.778;7.196;2024-03-22T04:12:00;26.03;;;20.67;;
9823;SDS011;4951;50.778;7.196;2024-03-22T04:14:26;24.93;;;18.07;;
9823;SDS011;4951;50.778;7.196;2024-03-22T04:16:54;19.90;;;16.20;;
9823;SDS011;4951;50.778;7.196;2024-03-22T04:19:21;23.07;;;17.03;;
9823;SDS011;4951;50.778;7.196;2024-03-22T04:21:49;29.77;;;20.97;;
9823;SDS011;4951;50.778;7.196;2024-03-22T04:24:17;24.10;;;19.93;;
9823;SDS011;4951;50.778;7.196;2024-03-22T04:26:44;21.47;;;16.87;;
9823;SDS011;4951;50.778;7.196;2024-03-22T04:29:10;28.03;;;20.80;;
9823;SDS011;4951;50.778;7.196;2024-03-22T04:31:38;22.80;;;17.83;;
9823;SDS011;4951;50.778;7.196;2024-03-22T04:34:04;20.37;;;16.23;;
9823;SDS011;4951;50.778;7.196;2024-03-22T04:36:32;24.17;;;17.87;;
9823;SDS011;4951;50.778;7.196;2024-03-22T04:38:58;26.67;;;20.93;;
9823;SDS011;4951;50.778;7.196;2024-03-22T04:41:27;20.03;;;15.33;;
9823;SDS011;4951;50.778;7.196;2024-03-22T04:43:54;22.93;;;17.30;;
9823;SDS011;4951;50.778;7.196;2024-03-22T04:46:21;25.43;;;19.27;;
9823;SDS011;4951;50.778;7.196;2024-03-22T04:48:48;27.27;;;19.83;;
9823;SDS011;4951;50.778;7.196;2024-03-22T04:51:15;24.57;;;17.67;;
9823;SDS011;4951;50.778;7.196;2024-03-22T04:53:43;22.37;;;15.23;;
9823;SDS011;4951;50.778;7.196;2024-03-22T04:56:10;19.00;;;14.70;;
9823;SDS011;4951;50.778;7.196;2024-03-22T04:58:38;21.67;;;16.50;;
9823;SDS011;4951;50.778;7.196;2024-03-22T05:01:05;17.10;;;13.27;;
9823;SDS011;4951;50.778;7.196;2024-03-22T05:03:31;15.60;;;11.27;;
9823;SDS011;4951;50.778;7.196;2024-03-22T05:05:58;13.03;;;10.10;;
9823;SDS011;4951;50.778;7.196;2024-03-22T05:08:24;13.40;;;10.33;;
9823;SDS011;4951;50.778;7.196;2024-03-22T05:10:52;11.40;;;9.87;;
9823;SDS011;4951;50.778;7.196;2024-03-22T05:13:18;13.33;;;10.50;;
9823;SDS011;4951;50.778;7.196;2024-03-22T05:15:47;12.67;;;9.27;;
9823;SDS011;4951;50.778;7.196;2024-03-22T05:18:13;11.93;;;9.77;;
9823;SDS011;4951;50.778;7.196;2024-03-22T05:20:40;12.80;;;9.53;;
9823;SDS011;4951;50.778;7.196;2024-03-22T05:23:06;11.27;;;9.80;;
9823;SDS011;4951;50.778;7.196;2024-03-22T05:25:33;13.73;;;9.67;;
9823;SDS011;4951;50.778;7.196;2024-03-22T05:28:00;11.67;;;9.43;;
9823;SDS011;4951;50.778;7.196;2024-03-22T05:30:27;12.80;;;9.60;;
9823;SDS011;4951;50.778;7.196;2024-03-22T05:32:54;13.67;;;9.27;;
9823;SDS011;4951;50.778;7.196;2024-03-22T05:35:21;12.30;;;9.00;;
9823;SDS011;4951;50.778;7.196;2024-03-22T05:37:47;12.20;;;8.60;;
9823;SDS011;4951;50.778;7.196;2024-03-22T05:40:15;14.03;;;9.37;;
9823;SDS011;4951;50.778;7.196;2024-03-22T05:42:44;11.70;;;8.67;;
9823;SDS011;4951;50.778;7.196;2024-03-22T05:45:11;10.00;;;8.60;;
9823;SDS011;4951;50.778;7.196;2024-03-22T05:47:38;11.27;;;8.67;;
9823;SDS011;4951;50.778;7.196;2024-03-22T05:50:07;12.63;;;9.17;;
9823;SDS011;4951;50.778;7.196;2024-03-22T05:52:34;11.40;;;8.30;;
9823;SDS011;4951;50.778;7.196;2024-03-22T05:55:01;9.83;;;8.00;;
9823;SDS011;4951;50.778;7.196;2024-03-22T05:57:28;11.33;;;7.87;;
9823;SDS011;4951;50.778;7.196;2024-03-22T05:59:55;10.07;;;8.23;;
9823;SDS011;4951;50.778;7.196;2024-03-22T06:02:20;10.30;;;7.77;;
9823;SDS011;4951;50.778;7.196;2024-03-22T06:04:48;9.93;;;7.87;;
9823;SDS011;4951;50.778;7.196;2024-03-22T06:07:16;10.87;;;7.87;;
9823;SDS011;4951;50.778;7.196;2024-03-22T06:09:43;11.13;;;8.07;;
9823;SDS011;4951;50.778;7.196;2024-03-22T06:12:11;9.93;;;7.53;;
9823;SDS011;4951;50.778;7.196;2024-03-22T06:14:39;11.70;;;7.30;;
9823;SDS011;4951;50.778;7.196;2024-03-22T06:17:05;9.50;;;7.33;;
9823;SDS011;4951;50.778;7.196;2024-03-22T06:19:32;9.10;;;7.67;;
9823;SDS011;4951;50.778;7.196;2024-03-22T06:21:58;11.03;;;8.40;;
9823;SDS011;4951;50.778;7.196;2024-03-22T06:24:27;8.90;;;7.77;;
9823;SDS011;4951;50.778;7.196;2024-03-22T06:26:53;8.73;;;7.37;;
9823;SDS011;4951;50.778;7.196;2024-03-22T06:29:20;9.30;;;7.63;;
9823;SDS011;4951;50.778;7.196;2024-03-22T06:31:46;9.00;;;7.10;;
9823;SDS011;4951;50.778;7.196;2024-03-22T06:34:15;9.37;;;7.40;;
9823;SDS011;4951;50.778;7.196;2024-03-22T06:36:41;12.13;;;7.63;;
9823;SDS011;4951;50.778;7.196;2024-03-22T06:39:09;10.83;;;7.17;;
9823;SDS011;4951;50.778;7.196;2024-03-22T06:41:37;8.70;;;7.10;;
9823;SDS011;4951;50.778;7.196;2024-03-22T06:44:04;10.57;;;7.23;;
9823;SDS011;4951;50.778;7.196;2024-03-22T06:46:30;8.90;;;7.47;;
9823;SDS011;4951;50.778;7.196;2024-03-22T06:48:57;8.13;;;6.90;;
9823;SDS011;4951;50.778;7.196;2024-03-22T06:51:24;9.13;;;6.90;;
9823;SDS011;4951;50.778;7.196;2024-03-22T06:53:51;9.43;;;7.43;;
9823;SDS011;4951;50.778;7.196;2024-03-22T06:56:18;7.80;;;6.80;;
9823;SDS011;4951;50.778;7.196;2024-03-22T06:58:47;8.13;;;6.60;;
9823;SDS011;4951;50.778;7.196;2024-03-22T07:01:14;8.57;;;6.87;;
9823;SDS011;4951;50.778;7.196;2024-03-22T07:03:42;9.37;;;6.80;;
9823;SDS011;4951;50.778;7.196;2024-03-22T07:06:10;9.30;;;6.97;;
9823;SDS011;4951;50.778;7.196;2024-03-22T07:08:38;8.63;;;6.47;;
9823;SDS011;4951;50.778;7.196;2024-03-22T07:11:05;10.17;;;6.70;;
9823;SDS011;4951;50.778;7.196;2024-03-22T07:13:32;8.10;;;6.70;;
9823;SDS011;4951;50.778;7.196;2024-03-22T07:16:00;8.53;;;6.77;;
9823;SDS011;4951;50.778;7.196;2024-03-22T07:18:28;8.00;;;6.23;;
9823;SDS011;4951;50.778;7.196;2024-03-22T07:20:54;9.33;;;6.60;;
9823;SDS011;4951;50.778;7.196;2024-03-22T07:23:23;8.13;;;6.87;;
9823;SDS011;4951;50.778;7.196;2024-03-22T07:25:49;7.67;;;6.03;;
9823;SDS011;4951;50.778;7.196;2024-03-22T07:28:16;10.03;;;6.50;;
9823;SDS011;4951;50.778;7.196;2024-03-22T07:30:43;7.40;;;6.07;;
9823;SDS011;4951;50.778;7.196;2024-03-22T07:33:11;7.77;;;6.13;;
9823;SDS011;4951;50.778;7.196;2024-03-22T07:35:38;7.37;;;6.10;;
9823;SDS011;4951;50.778;7.196;2024-03-22T07:38:05;8.90;;;6.37;;
9823;SDS011;4951;50.778;7.196;2024-03-22T07:40:32;7.37;;;5.90;;
9823;SDS011;4951;50.778;7.196;2024-03-22T07:42:59;8.50;;;6.33;;
9823;SDS011;4951;50.778;7.196;2024-03-22T07:45:31;8.27;;;6.27;;
9823;SDS011;4951;50.778;7.196;2024-03-22T07:47:58;8.50;;;6.63;;
9823;SDS011;4951;50.778;7.196;2024-03-22T07:50:26;10.77;;;6.57;;
9823;SDS011;4951;50.778;7.196;2024-03-22T07:52:53;8.67;;;6.40;;
9823;SDS011;4951;50.778;7.196;2024-03-22T07:55:19;8.03;;;5.83;;
9823;SDS011;4951;50.778;7.196;2024-03-22T07:57:46;7.80;;;6.80;;
9823;SDS011;4951;50.778;7.196;2024-03-22T08:00:12;8.53;;;6.30;;
9823;SDS011;4951;50.778;7.196;2024-03-22T08:02:41;8.07;;;6.70;;
9823;SDS011;4951;50.778;7.196;2024-03-22T08:05:07;9.97;;;7.43;;
9823;SDS011;4951;50.778;7.196;2024-03-22T08:07:35;10.40;;;7.60;;
9823;SDS011;4951;50.778;7.196;2024-03-22T08:10:02;11.20;;;7.87;;
9823;SDS011;4951;50.778;7.196;2024-03-22T08:12:30;8.80;;;7.90;;
9823;SDS011;4951;50.778;7.196;2024-03-22T08:14:56;9.63;;;7.50;;
9823;SDS011;4951;50.778;7.196;2024-03-22T08:17:23;7.97;;;6.83;;
9823;SDS011;4951;50.778;7.196;2024-03-22T08:19:49;10.90;;;7.80;;
9823;SDS011;4951;50.778;7.196;2024-03-22T08:22:16;10.63;;;8.10;;
9823;SDS011;4951;50.778;7.196;2024-03-22T08:24:44;10.27;;;7.87;;
9823;SDS011;4951;50.778;7.196;2024-03-22T08:27:11;10.07;;;7.40;;
9823;SDS011;4951;50.778;7.196;2024-03-22T08:29:37;10.13;;;7.47;;
9823;SDS011;4951;50.778;7.196;2024-03-22T08:32:05;11.57;;;7.63;;
9823;SDS011;4951;50.778;7.196;2024-03-22T08:34:32;9.60;;;7.40;;
9823;SDS011;4951;50.778;7.196;2024-03-22T08:36:59;9.93;;;8.33;;
9823;SDS011;4951;50.778;7.196;2024-03-22T08:39:25;10.50;;;8.50;;
9823;SDS011;4951;50.778;7.196;2024-03-22T08:41:53;11.87;;;9.30;;
9823;SDS011;4951;50.778;7.196;2024-03-22T08:44:20;12.03;;;8.63;;
9823;SDS011;4951;50.778;7.196;2024-03-22T08:46:47;10.70;;;7.80;;
9823;SDS011;4951;50.778;7.196;2024-03-22T08:49:14;12.13;;;9.53;;
9823;SDS011;4951;50.778;7.196;2024-03-22T08:51:44;11.70;;;10.20;;
9823;SDS011;4951;50.778;7.196;2024-03-22T08:54:11;12.33;;;9.20;;
9823;SDS011;4951;50.778;7.196;2024-03-22T08:56:38;12.50;;;9.13;;
9823;SDS011;4951;50.778;7.196;2024-03-22T08:59:05;11.73;;;9.60;;
9823;SDS011;4951;50.778;7.196;2024-03-22T09:01:32;12.43;;;10.77;;
9823;SDS011;4951;50.778;7.196;2024-03-22T09:03:58;13.50;;;10.47;;
9823;SDS011;4951;50.778;7.196;2024-03-22T09:06:26;12.33;;;10.60;;
9823;SDS011;4951;50.778;7.196;2024-03-22T09:08:52;13.87;;;11.77;;
9823;SDS011;4951;50.778;7.196;2024-03-22T09:11:22;18.13;;;12.07;;
9823;SDS011;4951;50.778;7.196;2024-03-22T09:13:51;15.73;;;12.30;;
9823;SDS011;4951;50.778;7.196;2024-03-22T09:16:20;15.17;;;12.63;;
9823;SDS011;4951;50.778;7.196;2024-03-22T09:18:46;19.27;;;13.63;;
9823;SDS011;4951;50.778;7.196;2024-03-22T09:21:13;18.83;;;13.70;;
9823;SDS011;4951;50.778;7.196;2024-03-22T09:23:39;14.70;;;12.67;;
9823;SDS011;4951;50.778;7.196;2024-03-22T09:26:06;14.93;;;12.83;;
9823;SDS011;4951;50.778;7.196;2024-03-22T09:28:32;17.60;;;12.90;;
9823;SDS011;4951;50.778;7.196;2024-03-22T09:31:03;15.50;;;12.37;;
9823;SDS011;4951;50.778;7.196;2024-03-22T09:33:32;15.53;;;13.47;;
9823;SDS011;4951;50.778;7.196;2024-03-22T09:35:59;15.30;;;12.50;;
9823;SDS011;4951;50.778;7.196;2024-03-22T09:38:28;14.97;;;12.80;;
9823;SDS011;4951;50.778;7.196;2024-03-22T09:40:56;15.43;;;12.33;;
9823;SDS011;4951;50.778;7.196;2024-03-22T09:43:23;14.50;;;13.03;;
9823;SDS011;4951;50.778;7.196;2024-03-22T09:45:53;16.17;;;13.30;;
9823;SDS011;4951;50.778;7.196;2024-03-22T09:48:20;16.00;;;13.03;;
9823;SDS011;4951;50.778;7.196;2024-03-22T09:50:50;17.27;;;13.17;;
9823;SDS011;4951;50.778;7.196;2024-03-22T09:53:18;15.57;;;13.10;;
9823;SDS011;4951;50.778;7.196;2024-03-22T09:55:49;17.63;;;13.23;;
9823;SDS011;4951;50.778;7.196;2024-03-22T09:58:17;16.03;;;13.20;;
9823;SDS011;4951;50.778;7.196;2024-03-22T10:00:44;16.83;;;12.97;;
9823;SDS011;4951;50.778;7.196;2024-03-22T10:03:11;14.23;;;12.80;;
9823;SDS011;4951;50.778;7.196;2024-03-22T10:05:42;14.67;;;13.07;;
9823;SDS011;4951;50.778;7.196;2024-03-22T10:08:10;16.47;;;12.53;;
9823;SDS011;4951;50.778;7.196;2024-03-22T10:10:38;13.30;;;11.90;;
9823;SDS011;4951;50.778;7.196;2024-03-22T10:13:04;14.70;;;12.55;;
9823;SDS011;4951;50.778;7.196;2024-03-22T10:15:31;15.83;;;12.67;;
9823;SDS011;4951;50.778;7.196;2024-03-22T10:17:57;14.98;;;11.52;;
9823;SDS011;4951;50.778;7.196;2024-03-22T10:20:24;14.23;;;11.32;;
9823;SDS011;4951;50.778;7.196;2024-03-22T10:22:55;14.37;;;10.50;;
9823;SDS011;4951;50.778;7.196;2024-03-22T10:25:24;14.03;;;9.87;;
9823;SDS011;4951;50.778;7.196;2024-03-22T10:27:53;11.10;;;9.67;;
9823;SDS011;4951;50.778;7.196;2024-03-22T10:30:21;10.40;;;8.43;;
9823;SDS011;4951;50.778;7.196;2024-03-22T10:32:49;12.93;;;10.97;;
9823;SDS011;4951;50.778;7.196;2024-03-22T10:35:17;13.43;;;10.20;;
9823;SDS011;4951;50.778;7.196;2024-03-22T10:37:43;12.55;;;9.68;;
9823;SDS011;4951;50.778;7.196;2024-03-22T10:40:11;9.27;;;7.93;;
9823;SDS011;4951;50.778;7.196;2024-03-22T10:42:39;8.55;;;6.97;;
9823;SDS011;4951;50.778;7.196;2024-03-22T10:45:08;10.90;;;7.75;;
9823;SDS011;4951;50.778;7.196;2024-03-22T10:47:36;12.80;;;8.27;;
9823;SDS011;4951;50.778;7.196;2024-03-22T10:50:05;9.90;;;7.95;;
9823;SDS011;4951;50.778;7.196;2024-03-22T10:52:33;7.90;;;6.90;;
9823;SDS011;4951;50.778;7.196;2024-03-22T10:55:03;9.23;;;7.17;;
9823;SDS011;4951;50.778;7.196;2024-03-22T10:57:32;11.17;;;8.17;;
9823;SDS011;4951;50.778;7.196;2024-03-22T11:00:07;9.40;;;7.43;;
9823;SDS011;4951;50.778;7.196;2024-03-22T11:02:35;10.33;;;7.70;;
9823;SDS011;4951;50.778;7.196;2024-03-22T11:05:03;7.70;;;6.47;;
9823;SDS011;4951;50.778;7.196;2024-03-22T11:07:30;8.00;;;6.50;;
9823;SDS011;4951;50.778;7.196;2024-03-22T11:09:57;8.95;;;6.78;;
9823;SDS011;4951;50.778;7.196;2024-03-22T11:12:26;9.70;;;7.70;;
9823;SDS011;4951;50.778;7.196;2024-03-22T11:14:58;10.33;;;9.07;;
9823;SDS011;4951;50.778;7.196;2024-03-22T11:17:25;10.30;;;7.03;;
9823;SDS011;4951;50.778;7.196;2024-03-22T11:19:56;10.82;;;6.97;;
9823;SDS011;4951;50.778;7.196;2024-03-22T11:22:22;6.68;;;5.97;;
9823;SDS011;4951;50.778;7.196;2024-03-22T11:24:49;9.70;;;7.33;;
9823;SDS011;4951;50.778;7.196;2024-03-22T11:27:15;10.93;;;6.53;;
9823;SDS011;4951;50.778;7.196;2024-03-22T11:29:42;9.02;;;6.32;;
9823;SDS011;4951;50.778;7.196;2024-03-22T11:32:13;6.30;;;5.70;;
9823;SDS011;4951;50.778;7.196;2024-03-22T11:34:43;6.95;;;6.20;;
9823;SDS011;4951;50.778;7.196;2024-03-22T11:37:10;11.13;;;7.03;;
9823;SDS011;4951;50.778;7.196;2024-03-22T11:39:37;8.65;;;6.60;;
9823;SDS011;4951;50.778;7.196;2024-03-22T11:42:03;7.72;;;6.43;;
9823;SDS011;4951;50.778;7.196;2024-03-22T11:44:32;8.47;;;6.20;;
9823;SDS011;4951;50.778;7.196;2024-03-22T11:47:01;6.15;;;5.22;;
9823;SDS011;4951;50.778;7.196;2024-03-22T11:49:29;6.72;;;5.20;;
9823;SDS011;4951;50.778;7.196;2024-03-22T11:51:57;6.28;;;5.25;;
9823;SDS011;4951;50.778;7.196;2024-03-22T11:54:24;4.90;;;4.20;;
9823;SDS011;4951;50.778;7.196;2024-03-22T11:56:51;5.90;;;4.03;;
9823;SDS011;4951;50.778;7.196;2024-03-22T11:59:19;7.68;;;4.43;;
9823;SDS011;4951;50.778;7.196;2024-03-22T12:01:45;4.63;;;4.05;;
9823;SDS011;4951;50.778;7.196;2024-03-22T12:04:13;4.28;;;3.50;;
9823;SDS011;4951;50.778;7.196;2024-03-22T12:06:41;5.60;;;4.53;;
9823;SDS011;4951;50.778;7.196;2024-03-22T12:09:10;5.07;;;3.47;;
9823;SDS011;4951;50.778;7.196;2024-03-22T12:11:38;5.00;;;3.37;;
9823;SDS011;4951;50.778;7.196;2024-03-22T12:14:05;6.88;;;4.00;;
9823;SDS011;4951;50.778;7.196;2024-03-22T12:16:31;4.80;;;3.88;;
9823;SDS011;4951;50.778;7.196;2024-03-22T12:18:59;6.33;;;3.77;;
9823;SDS011;4951;50.778;7.196;2024-03-22T12:21:25;5.40;;;3.80;;
9823;SDS011;4951;50.778;7.196;2024-03-22T12:23:52;6.97;;;2.87;;
9823;SDS011;4951;50.778;7.196;2024-03-22T12:26:19;4.27;;;3.30;;
9823;SDS011;4951;50.778;7.196;2024-03-22T12:28:46;5.03;;;3.00;;
9823;SDS011;4951;50.778;7.196;2024-03-22T12:31:12;3.43;;;3.13;;
9823;SDS011;4951;50.778;7.196;2024-03-22T12:33:39;3.57;;;2.40;;
9823;SDS011;4951;50.778;7.196;2024-03-22T12:36:06;3.55;;;3.00;;
9823;SDS011;4951;50.778;7.196;2024-03-22T12:38:36;5.83;;;3.63;;
9823;SDS011;4951;50.778;7.196;2024-03-22T12:41:02;3.33;;;2.60;;
9823;SDS011;4951;50.778;7.196;2024-03-22T12:43:30;4.35;;;2.83;;
9823;SDS011;4951;50.778;7.196;2024-03-22T12:45:57;3.75;;;3.30;;
9823;SDS011;4951;50.778;7.196;2024-03-22T12:48:24;4.22;;;3.20;;
9823;SDS011;4951;50.778;7.196;2024-03-22T12:50:50;5.13;;;3.07;;
9823;SDS011;4951;50.778;7.196;2024-03-22T12:53:17;3.83;;;2.78;;
9823;SDS011;4951;50.778;7.196;2024-03-22T12:55:43;3.20;;;2.50;;
9823;SDS011;4951;50.778;7.196;2024-03-22T12:58:10;5.57;;;2.75;;
9823;SDS011;4951;50.778;7.196;2024-03-22T13:00:38;3.27;;;2.50;;
9823;SDS011;4951;50.778;7.196;2024-03-22T13:03:05;4.28;;;2.80;;
9823;SDS011;4951;50.778;7.196;2024-03-22T13:05:31;4.57;;;2.72;;
9823;SDS011;4951;50.778;7.196;2024-03-22T13:07:58;2.90;;;2.60;;
9823;SDS011;4951;50.778;7.196;2024-03-22T13:10:24;5.00;;;2.53;;
9823;SDS011;4951;50.778;7.196;2024-03-22T13:12:51;3.97;;;2.70;;
9823;SDS011;4951;50.778;7.196;2024-03-22T13:15:18;2.70;;;2.40;;
9823;SDS011;4951;50.778;7.196;2024-03-22T13:17:49;3.65;;;2.40;;
9823;SDS011;4951;50.778;7.196;2024-03-22T13:20:15;2.85;;;2.10;;
9823;SDS011;4951;50.778;7.196;2024-03-22T13:22:43;4.57;;;2.30;;
9823;SDS011;4951;50.778;7.196;2024-03-22T13:25:09;3.50;;;2.30;;
9823;SDS011;4951;50.778;7.196;2024-03-22T13:27:37;3.43;;;2.20;;
9823;SDS011;4951;50.778;7.196;2024-03-22T13:30:05;2.20;;;2.00;;
9823;SDS011;4951;50.778;7.196;2024-03-22T13:32:35;2.92;;;2.10;;
9823;SDS011;4951;50.778;7.196;2024-03-22T13:35:03;4.97;;;2.30;;
9823;SDS011;4951;50.778;7.196;2024-03-22T13:37:31;2.40;;;2.22;;
9823;SDS011;4951;50.778;7.196;2024-03-22T13:39:57;3.08;;;2.45;;
9823;SDS011;4951;50.778;7.196;2024-03-22T13:42:25;2.72;;;2.17;;
9823;SDS011;4951;50.778;7.196;2024-03-22T13:44:52;4.45;;;2.63;;
9823;SDS011;4951;50.778;7.196;2024-03-22T13:47:19;2.92;;;2.63;;
9823;SDS011;4951;50.778;7.196;2024-03-22T13:49:46;3.97;;;2.75;;
9823;SDS011;4951;50.778;7.196;2024-03-22T13:52:15;4.53;;;2.65;;
9823;SDS011;4951;50.778;7.196;2024-03-22T13:54:41;2.88;;;2.60;;
9823;SDS011;4951;50.778;7.196;2024-03-22T13:57:09;2.67;;;2.42;;
9823;SDS011;4951;50.778;7.196;2024-03-22T13:59:36;4.15;;;2.65;;
9823;SDS011;4951;50.778;7.196;2024-03-22T14:02:05;4.63;;;2.65;;
9823;SDS011;4951;50.778;7.196;2024-03-22T14:04:33;3.38;;;2.88;;
9823;SDS011;4951;50.778;7.196;2024-03-22T14:07:01;3.35;;;3.00;;
9823;SDS011;4951;50.778;7.196;2024-03-22T14:09:31;4.30;;;3.38;;
9823;SDS011;4951;50.778;7.196;2024-03-22T14:11:59;5.20;;;3.42;;
9823;SDS011;4951;50.778;7.196;2024-03-22T14:14:25;4.28;;;3.35;;
9823;SDS011;4951;50.778;7.196;2024-03-22T14:16:53;4.28;;;3.70;;
9823;SDS011;4951;50.778;7.196;2024-03-22T14:19:20;3.72;;;2.90;;
9823;SDS011;4951;50.778;7.196;2024-03-22T14:21:47;4.25;;;3.30;;
9823;SDS011;4951;50.778;7.196;2024-03-22T14:24:13;7.07;;;4.00;;
9823;SDS011;4951;50.778;7.196;2024-03-22T14:26:43;4.90;;;4.05;;
9823;SDS011;4951;50.778;7.196;2024-03-22T14:29:09;5.82;;;4.30;;
9823;SDS011;4951;50.778;7.196;2024-03-22T14:31:37;6.90;;;4.50;;
9823;SDS011;4951;50.778;7.196;2024-03-22T14:34:04;6.70;;;4.78;;
9823;SDS011;4951;50.778;7.196;2024-03-22T14:36:33;6.55;;;4.85;;
9823;SDS011;4951;50.778;7.196;2024-03-22T14:38:59;5.38;;;4.57;;
9823;SDS011;4951;50.778;7.196;2024-03-22T14:41:27;4.90;;;3.83;;
9823;SDS011;4951;50.778;7.196;2024-03-22T14:43:55;5.70;;;4.53;;
9823;SDS011;4951;50.778;7.196;2024-03-22T14:46:22;7.10;;;3.97;;
9823;SDS011;4951;50.778;7.196;2024-03-22T14:48:53;5.55;;;3.78;;
9823;SDS011;4951;50.778;7.196;2024-03-22T14:51:21;4.93;;;4.20;;
9823;SDS011;4951;50.778;7.196;2024-03-22T14:53:47;6.57;;;4.32;;
9823;SDS011;4951;50.778;7.196;2024-03-22T14:56:15;5.30;;;4.63;;
9823;SDS011;4951;50.778;7.196;2024-03-22T14:58:42;8.35;;;4.72;;
9823;SDS011;4951;50.778;7.196;2024-03-22T15:01:12;7.22;;;5.28;;